createdAt,value
2022-12-03T00:00:16.431Z,99108.47
2022-12-03T00:02:45.157Z,99105.22
2022-12-03T00:05:14.045Z,99113.81
2022-12-03T00:07:42.735Z,99108.13
2022-12-03T00:10:13.526Z,99107.34
2022-12-03T00:12:42.196Z,99108.31
2022-12-03T00:15:11.998Z,99112.34
2022-12-03T00:17:40.601Z,99107.97
2022-12-03T00:20:10.307Z,99108.78
2022-12-03T00:22:38.911Z,99111.06
2022-12-03T00:25:08.873Z,99107.66
2022-12-03T00:27:38.886Z,99112.50
2022-12-03T00:30:08.672Z,99109.44
2022-12-03T00:32:37.434Z,99104.59
2022-12-03T00:35:06.705Z,99105.88
2022-12-03T00:37:35.790Z,99104.13
2022-12-03T00:40:04.884Z,99106.38
2022-12-03T00:42:33.631Z,99106.53
2022-12-03T00:45:03.617Z,99109.78
2022-12-03T00:47:32.243Z,99114.94
2022-12-03T00:50:00.833Z,99108.97
2022-12-03T00:52:29.415Z,99111.72
2022-12-03T00:54:57.975Z,99112.34
2022-12-03T00:57:26.615Z,99117.34
2022-12-03T00:59:55.240Z,99114.75
2022-12-03T01:02:25.220Z,99113.47
2022-12-03T01:04:54.066Z,99115.56
2022-12-03T01:07:22.936Z,99116.38
2022-12-03T01:09:51.638Z,99120.09
2022-12-03T01:12:20.247Z,99118.47
2022-12-03T01:14:48.846Z,99122.84
2022-12-03T01:17:17.431Z,99120.91
2022-12-03T01:19:48.541Z,99124.94
2022-12-03T01:22:17.375Z,99126.06
2022-12-03T01:24:46.050Z,99113.44
2022-12-03T01:27:14.633Z,99120.44
2022-12-03T01:29:43.302Z,99118.63
2022-12-03T01:32:17.826Z,99120.09
2022-12-03T01:34:49.192Z,99123.66
2022-12-03T01:37:18.752Z,99124.31
2022-12-03T01:39:47.367Z,99127.53
2022-12-03T01:42:18.802Z,99123.31
2022-12-03T01:44:47.797Z,99119.78
2022-12-03T01:47:18.435Z,99130.28
2022-12-03T01:49:50.845Z,99123.19
2022-12-03T01:52:21.062Z,99120.59
2022-12-03T01:54:52.343Z,99119.13
2022-12-03T01:57:23.491Z,99123.19
2022-12-03T01:59:52.867Z,99124.31
2022-12-03T02:02:24.532Z,99123.66
2022-12-03T02:04:55.203Z,99128.50
2022-12-03T02:07:27.179Z,99129.78
2022-12-03T02:09:58.182Z,99123.97
2022-12-03T02:12:31.142Z,99124.47
2022-12-03T02:15:00.021Z,99123.34
2022-12-03T02:17:28.890Z,99126.25
2022-12-03T02:19:59.663Z,99131.75
2022-12-03T02:22:33.997Z,99122.34
2022-12-03T02:25:13.243Z,99121.75
2022-12-03T02:27:42.117Z,99112.81
2022-12-03T02:30:13.124Z,99115.25
2022-12-03T02:32:41.728Z,99122.03
2022-12-03T02:35:15.762Z,99124.97
2022-12-03T02:37:45.371Z,99115.91
2022-12-03T02:40:18.257Z,99121.41
2022-12-03T02:42:47.804Z,99117.38
2022-12-03T02:45:19.634Z,99119.00
2022-12-03T02:47:51.859Z,99119.78
2022-12-03T02:50:21.930Z,99122.72
2022-12-03T02:52:50.755Z,99124.97
2022-12-03T02:55:21.025Z,99127.56
2022-12-03T02:57:50.436Z,99128.81
2022-12-03T03:00:20.270Z,99122.53
2022-12-03T03:02:50.624Z,99120.44
2022-12-03T03:05:21.691Z,99127.19
2022-12-03T03:07:51.150Z,99121.69
2022-12-03T03:10:23.287Z,99123.31
2022-12-03T03:12:54.270Z,99127.53
2022-12-03T03:15:23.404Z,99123.66
2022-12-03T03:17:52.136Z,99125.56
2022-12-03T03:20:21.237Z,99127.19
2022-12-03T03:22:49.881Z,99121.06
2022-12-03T03:25:22.404Z,99114.09
2022-12-03T03:27:51.083Z,99123.16
2022-12-03T03:30:19.855Z,99117.03
2022-12-03T03:32:48.465Z,99113.31
2022-12-03T03:35:17.975Z,99114.09
2022-12-03T03:37:46.689Z,99116.53
2022-12-03T03:40:15.338Z,99106.81
2022-12-03T03:42:45.317Z,99113.31
2022-12-03T03:45:13.952Z,99111.66
2022-12-03T03:47:42.779Z,99108.13
2022-12-03T03:50:13.492Z,99117.81
2022-12-03T03:52:42.632Z,99106.31
2022-12-03T03:55:11.994Z,99112.47
2022-12-03T03:57:40.836Z,99107.13
2022-12-03T04:00:12.280Z,99105.53
2022-12-03T04:02:41.677Z,99102.63
2022-12-03T04:05:12.671Z,99099.88
2022-12-03T04:07:41.303Z,99105.38
2022-12-03T04:10:39.531Z,99103.59
2022-12-03T04:13:07.121Z,99104.53
2022-12-03T04:15:37.075Z,99096.78
2022-12-03T04:18:23.808Z,99100.38
2022-12-03T04:21:12.376Z,99096.94
2022-12-03T04:23:40.041Z,99098.09
2022-12-03T04:26:26.546Z,99107.13
2022-12-03T04:28:55.198Z,99096.16
2022-12-03T04:31:42.909Z,99095.19
2022-12-03T04:34:29.310Z,99093.06
2022-12-03T04:36:57.888Z,99095.03
2022-12-03T04:39:26.504Z,99091.59
2022-12-03T04:41:55.103Z,99084.19
2022-12-03T04:44:36.784Z,99079.00
2022-12-03T04:47:09.243Z,99085.19
2022-12-03T04:49:39.804Z,99085.81
2022-12-03T04:52:08.796Z,99099.38
2022-12-03T04:54:37.456Z,99087.88
2022-12-03T04:57:06.665Z,99095.47
2022-12-03T04:59:36.145Z,99085.31
2022-12-03T05:02:05.543Z,99097.44
2022-12-03T05:04:35.671Z,99090.66
2022-12-03T05:07:04.460Z,99084.19
2022-12-03T05:09:33.094Z,99082.25
2022-12-03T05:12:01.729Z,99081.25
2022-12-03T05:14:30.331Z,99083.06
2022-12-03T05:16:59.001Z,99084.19
2022-12-03T05:19:47.652Z,99084.66
2022-12-03T05:22:16.599Z,99078.84
2022-12-03T05:24:45.204Z,99081.25
2022-12-03T05:27:15.795Z,99079.97
2022-12-03T05:29:47.399Z,99074.16
2022-12-03T05:32:16.064Z,99060.56
2022-12-03T05:34:44.640Z,99055.72
2022-12-03T05:37:13.209Z,99052.78
2022-12-03T05:39:43.140Z,99060.91
2022-12-03T05:42:29.802Z,99057.97
2022-12-03T05:44:58.487Z,99066.41
2022-12-03T05:47:27.093Z,99058.97
2022-12-03T05:49:55.767Z,99061.56
2022-12-03T05:52:24.350Z,99055.88
2022-12-03T05:54:54.393Z,99071.06
2022-12-03T05:57:23.083Z,99062.53
2022-12-03T05:59:51.699Z,99069.94
2022-12-03T06:02:20.354Z,99074.66
2022-12-03T06:04:49.133Z,99068.81
2022-12-03T06:07:17.720Z,99073.03
2022-12-03T06:09:46.350Z,99065.94
2022-12-03T06:12:16.287Z,99064.16
2022-12-03T06:14:44.900Z,99057.34
2022-12-03T06:17:13.514Z,99070.63
2022-12-03T06:19:42.084Z,99079.84
2022-12-03T06:22:10.698Z,99073.03
2022-12-03T06:24:39.270Z,99080.78
2022-12-03T06:27:07.891Z,99087.25
2022-12-03T06:29:37.835Z,99074.94
2022-12-03T06:32:06.976Z,99085.31
2022-12-03T06:34:35.616Z,99080.78
2022-12-03T06:37:04.289Z,99078.38
2022-12-03T06:39:32.887Z,99085.47
2022-12-03T06:42:01.447Z,99090.63
2022-12-03T06:44:30.075Z,99091.59
2022-12-03T06:47:00.117Z,99103.25
2022-12-03T06:49:28.837Z,99101.78
2022-12-03T06:51:57.402Z,99096.78
2022-12-03T06:54:26.010Z,99102.59
2022-12-03T06:56:54.603Z,99095.19
2022-12-03T06:59:23.178Z,99091.41
2022-12-03T07:01:51.808Z,99084.94
2022-12-03T07:04:21.936Z,99082.88
2022-12-03T07:06:50.610Z,99087.53
2022-12-03T07:09:19.364Z,99080.59
2022-12-03T07:11:47.999Z,99079.31
2022-12-03T07:14:16.675Z,99068.66
2022-12-03T07:16:45.416Z,99074.13
2022-12-03T07:19:14.380Z,99074.59
2022-12-03T07:21:44.371Z,99084.50
2022-12-03T07:24:13.173Z,99090.97
2022-12-03T07:26:41.806Z,99090.31
2022-12-03T07:29:10.386Z,99087.09
2022-12-03T07:31:39.051Z,99082.19
2022-12-03T07:34:07.997Z,99082.53
2022-12-03T07:36:36.616Z,99084.97
2022-12-03T07:39:06.673Z,99091.13
2022-12-03T07:41:35.287Z,99083.19
2022-12-03T07:44:07.725Z,99079.78
2022-12-03T07:46:39.515Z,99069.75
2022-12-03T07:49:08.141Z,99085.81
2022-12-03T07:51:36.766Z,99087.88
2022-12-03T07:54:06.791Z,99087.72
2022-12-03T07:56:35.554Z,99089.03
2022-12-03T07:59:04.170Z,99089.34
2022-12-03T08:01:32.862Z,99082.09
2022-12-03T08:04:01.652Z,99079.34
2022-12-03T08:06:30.355Z,99079.66
2022-12-03T08:08:58.972Z,99084.34
2022-12-03T08:11:30.061Z,99091.94
2022-12-03T08:13:58.871Z,99092.88
2022-12-03T08:16:27.596Z,99089.34
2022-12-03T08:18:57.471Z,99084.19
2022-12-03T08:21:29.389Z,99091.59
2022-12-03T08:23:58.394Z,99096.31
2022-12-03T08:26:30.604Z,99093.91
2022-12-03T08:28:59.496Z,99090.50
2022-12-03T08:31:33.120Z,99092.44
2022-12-03T08:34:17.051Z,99087.94
2022-12-03T08:36:46.790Z,99099.06
2022-12-03T08:39:30.345Z,99090.03
2022-12-03T08:42:26.640Z,99097.28
2022-12-03T08:44:56.237Z,99096.00
2022-12-03T08:47:25.653Z,99092.09
2022-12-03T08:49:58.001Z,99094.22
2022-12-03T08:52:32.954Z,99090.03
2022-12-03T08:55:10.791Z,99093.56
2022-12-03T08:57:43.323Z,99096.31
2022-12-03T09:00:19.281Z,99095.69
2022-12-03T09:02:50.621Z,99093.94
2022-12-03T09:05:21.552Z,99102.03
2022-12-03T09:07:50.336Z,99099.44
2022-12-03T09:10:18.987Z,99093.44
2022-12-03T09:12:48.929Z,99094.56
2022-12-03T09:15:17.645Z,99097.81
2022-12-03T09:17:46.244Z,99101.06
2022-12-03T09:20:15.033Z,99106.53
2022-12-03T09:22:43.748Z,99097.47
2022-12-03T09:25:12.703Z,99101.06
2022-12-03T09:27:41.402Z,99106.88
2022-12-03T09:30:12.184Z,99097.66
2022-12-03T09:32:40.855Z,99096.50
2022-12-03T09:35:09.807Z,99089.91
2022-12-03T09:37:38.392Z,99092.31
2022-12-03T09:40:08.811Z,99087.13
2022-12-03T09:42:37.538Z,99087.78
2022-12-03T09:45:10.713Z,99087.78
2022-12-03T09:47:41.682Z,99089.09
2022-12-03T09:50:12.684Z,99082.59
2022-12-03T09:52:41.410Z,99086.81
2022-12-03T09:55:15.886Z,99086.19
2022-12-03T09:57:44.603Z,99086.00
2022-12-03T10:00:18.643Z,99086.31
2022-12-03T10:02:48.966Z,99087.28
2022-12-03T10:05:19.864Z,99091.34
2022-12-03T10:07:49.167Z,99092.94
2022-12-03T10:10:20.187Z,99098.59
2022-12-03T10:12:49.072Z,99103.94
2022-12-03T10:15:19.401Z,99101.53
2022-12-03T10:17:51.607Z,99092.00
2022-12-03T10:20:21.814Z,99088.41
2022-12-03T10:22:50.640Z,99086.81
2022-12-03T10:25:21.187Z,99076.31
2022-12-03T10:27:57.493Z,99081.97
2022-12-03T10:30:28.522Z,99070.34
2022-12-03T10:33:02.597Z,99068.88
2022-12-03T10:35:38.585Z,99064.34
2022-12-03T10:38:08.316Z,99065.16
2022-12-03T10:40:38.513Z,99055.31
2022-12-03T10:43:21.578Z,99060.00
2022-12-03T10:45:51.431Z,99064.53
2022-12-03T10:48:25.438Z,99057.09
2022-12-03T10:50:55.591Z,99056.44
2022-12-03T10:53:28.054Z,99047.22
2022-12-03T10:55:59.463Z,99045.78
2022-12-03T10:58:29.844Z,99042.69
2022-12-03T11:00:59.925Z,99038.97
2022-12-03T11:03:31.282Z,99037.69
2022-12-03T11:06:01.937Z,99029.78
2022-12-03T11:08:32.837Z,99030.25
2022-12-03T11:11:02.857Z,99024.13
2022-12-03T11:13:46.643Z,99018.97
2022-12-03T11:16:16.696Z,99021.88
2022-12-03T11:19:03.096Z,99020.09
2022-12-03T11:21:31.759Z,99023.50
2022-12-03T11:24:20.091Z,99015.56
2022-12-03T11:27:26.221Z,99008.28
2022-12-03T11:29:57.159Z,99023.81
2022-12-03T11:33:08.731Z,99017.84
2022-12-03T11:36:15.204Z,99012.97
2022-12-03T11:38:53.415Z,99022.03
2022-12-03T11:41:28.777Z,99006.84
2022-12-03T11:44:29.257Z,99001.50
2022-12-03T11:46:59.615Z,98997.31
2022-12-03T11:49:34.292Z,99003.59
2022-12-03T11:52:19.210Z,98990.22
2022-12-03T11:55:05.537Z,98984.56
2022-12-03T11:57:36.684Z,98985.19
2022-12-03T12:00:15.835Z,98972.13
2022-12-03T12:02:44.976Z,98971.13
2022-12-03T12:05:22.114Z,98979.06
2022-12-03T12:07:52.791Z,98972.09
2022-12-03T12:10:45.930Z,98975.31
2022-12-03T12:13:57.381Z,98967.88
2022-12-03T12:16:58.296Z,98962.88
2022-12-03T12:19:46.420Z,98958.00
2022-12-03T12:22:32.821Z,98958.38
2022-12-03T12:25:03.701Z,98960.31
2022-12-03T12:27:35.383Z,98966.44
2022-12-03T12:30:07.007Z,98963.72
2022-12-03T12:32:41.222Z,98956.28
2022-12-03T12:35:17.113Z,98945.94
2022-12-03T12:37:56.654Z,98948.34
2022-12-03T12:40:30.811Z,98951.78
2022-12-03T12:43:05.389Z,98946.91
2022-12-03T12:45:41.076Z,98943.38
2022-12-03T12:48:17.181Z,98948.53
2022-12-03T12:50:47.583Z,98937.56
2022-12-03T12:53:21.674Z,98935.13
2022-12-03T12:55:55.343Z,98922.06
2022-12-03T12:58:24.379Z,98920.72
2022-12-03T13:00:54.492Z,98926.06
2022-12-03T13:03:25.819Z,98910.56
2022-12-03T13:05:54.763Z,98912.19
2022-12-03T13:08:27.202Z,98914.75
2022-12-03T13:10:58.152Z,98904.38
2022-12-03T13:13:30.834Z,98912.16
2022-12-03T13:16:02.293Z,98911.47
2022-12-03T13:18:34.749Z,98918.63
2022-12-03T13:21:14.494Z,98914.31
2022-12-03T13:23:43.140Z,98923.81
2022-12-03T13:26:36.045Z,98924.47
2022-12-03T13:29:14.635Z,98916.22
2022-12-03T13:31:49.612Z,98921.41
2022-12-03T13:34:21.239Z,98917.34
2022-12-03T13:36:57.169Z,98916.56
2022-12-03T13:39:32.319Z,98915.25
2022-12-03T13:42:33.451Z,98915.72
2022-12-03T13:45:02.731Z,98909.75
2022-12-03T13:47:31.415Z,98910.25
2022-12-03T13:50:04.230Z,98911.88
2022-12-03T13:52:34.131Z,98917.84
2022-12-03T13:55:04.071Z,98919.94
2022-12-03T13:57:34.119Z,98919.47
2022-12-03T14:00:03.362Z,98911.56
2022-12-03T14:02:32.241Z,98921.44
2022-12-03T14:05:01.008Z,98914.78
2022-12-03T14:07:29.795Z,98910.78
2022-12-03T14:09:58.408Z,98908.66
2022-12-03T14:12:27.019Z,98906.72
2022-12-03T14:14:57.147Z,98907.84
2022-12-03T14:17:25.742Z,98904.66
2022-12-03T14:19:54.732Z,98907.72
2022-12-03T14:22:25.335Z,98904.31
2022-12-03T14:24:54.546Z,98903.34
2022-12-03T14:27:24.574Z,98901.72
2022-12-03T14:29:53.698Z,98907.22
2022-12-03T14:32:23.960Z,98913.34
2022-12-03T14:34:52.605Z,98915.44
2022-12-03T14:37:21.625Z,98924.97
2022-12-03T14:39:50.247Z,98931.78
2022-12-03T14:42:18.868Z,98932.72
2022-12-03T14:44:49.340Z,98930.16
2022-12-03T14:47:19.446Z,98930.00
2022-12-03T14:49:49.975Z,98932.91
2022-12-03T14:52:19.352Z,98940.66
2022-12-03T14:54:47.998Z,98934.19
2022-12-03T14:57:16.912Z,98929.50
2022-12-03T14:59:46.852Z,98942.91
2022-12-03T15:02:15.558Z,98938.38
2022-12-03T15:04:44.284Z,98929.19
2022-12-03T15:07:14.342Z,98928.38
2022-12-03T15:09:42.919Z,98924.34
2022-12-03T15:12:11.527Z,98927.88
2022-12-03T15:14:41.185Z,98925.28
2022-12-03T15:17:09.878Z,98922.91
2022-12-03T15:19:38.492Z,98922.56
2022-12-03T15:22:07.078Z,98915.13
2022-12-03T15:24:37.055Z,98918.03
2022-12-03T15:27:05.878Z,98923.19
2022-12-03T15:29:34.533Z,98927.59
2022-12-03T15:32:03.205Z,98932.09
2022-12-03T15:34:31.803Z,98941.13
2022-12-03T15:37:00.423Z,98934.50
2022-12-03T15:39:29.574Z,98929.03
2022-12-03T15:41:59.541Z,98927.41
2022-12-03T15:44:28.222Z,98926.28
2022-12-03T15:46:56.830Z,98921.91
2022-12-03T15:49:25.430Z,98922.06
2022-12-03T15:51:54.081Z,98921.75
2022-12-03T15:54:22.687Z,98921.44
2022-12-03T15:56:56.855Z,98923.03
2022-12-03T15:59:27.297Z,98928.53
2022-12-03T16:01:55.981Z,98929.03
2022-12-03T16:04:24.661Z,98923.88
2022-12-03T16:06:53.335Z,98918.88
2022-12-03T16:09:27.045Z,98920.63
2022-12-03T16:11:56.216Z,98919.19
2022-12-03T16:14:24.831Z,98919.31
2022-12-03T16:16:54.997Z,98922.72
2022-12-03T16:19:23.564Z,98917.22
2022-12-03T16:21:52.245Z,98920.16
2022-12-03T16:24:20.863Z,98914.00
2022-12-03T16:26:49.494Z,98921.13
2022-12-03T16:29:18.161Z,98907.22
2022-12-03T16:31:46.897Z,98916.44
2022-12-03T16:34:16.935Z,98906.25
2022-12-03T16:36:46.523Z,98908.03
2022-12-03T16:39:16.286Z,98916.09
2022-12-03T16:41:44.953Z,98911.88
2022-12-03T16:44:30.298Z,98911.75
2022-12-03T16:47:00.134Z,98914.81
2022-12-03T16:49:30.143Z,98919.31
2022-12-03T16:51:58.824Z,98921.13
2022-12-03T16:54:27.432Z,98922.72
2022-12-03T16:56:56.057Z,98915.44
2022-12-03T16:59:24.695Z,98912.06
2022-12-03T17:01:53.396Z,98917.72
2022-12-03T17:04:22.055Z,98905.78
2022-12-03T17:06:52.060Z,98909.00
2022-12-03T17:09:20.747Z,98911.13
2022-12-03T17:11:49.426Z,98903.03
2022-12-03T17:14:18.082Z,98898.34
2022-12-03T17:16:46.703Z,98894.31
2022-12-03T17:19:15.840Z,98891.41
2022-12-03T17:21:44.791Z,98882.53
2022-12-03T17:24:14.865Z,98886.91
2022-12-03T17:26:44.550Z,98886.25
2022-12-03T17:29:14.137Z,98881.41
2022-12-03T17:31:43.108Z,98879.16
2022-12-03T17:34:11.814Z,98879.47
2022-12-03T17:36:40.482Z,98879.00
2022-12-03T17:39:09.112Z,98884.31
2022-12-03T17:41:39.047Z,98884.94
2022-12-03T17:44:11.377Z,98889.31
2022-12-03T17:46:41.658Z,98884.00
2022-12-03T17:49:10.404Z,98879.47
2022-12-03T17:51:39.324Z,98885.63
2022-12-03T17:54:07.954Z,98884.34
2022-12-03T17:56:36.964Z,98886.91
2022-12-03T17:59:07.002Z,98888.50
2022-12-03T18:01:35.699Z,98880.91
2022-12-03T18:04:04.519Z,98886.56
2022-12-03T18:06:33.213Z,98866.25
2022-12-03T18:09:01.830Z,98870.13
2022-12-03T18:11:30.507Z,98870.09
2022-12-03T18:14:01.275Z,98868.00
2022-12-03T18:16:31.332Z,98869.63
2022-12-03T18:19:06.091Z,98876.06
2022-12-03T18:21:35.592Z,98876.56
2022-12-03T18:24:04.628Z,98875.59
2022-12-03T18:26:33.208Z,98879.78
2022-12-03T18:29:01.820Z,98878.00
2022-12-03T18:31:31.890Z,98878.00
2022-12-03T18:34:00.518Z,98874.13
2022-12-03T18:36:32.430Z,98865.06
2022-12-03T18:39:01.424Z,98859.78
2022-12-03T18:41:30.077Z,98866.22
2022-12-03T18:43:59.737Z,98868.16
2022-12-03T18:46:52.597Z,98864.78
2022-12-03T18:49:18.430Z,98857.84
2022-12-03T18:51:48.309Z,98870.91
2022-12-03T18:54:17.202Z,98869.94
2022-12-03T18:56:45.836Z,98861.38
2022-12-03T18:59:14.414Z,98861.38
2022-12-03T19:01:43.062Z,98868.97
2022-12-03T19:04:11.866Z,98869.47
2022-12-03T19:06:41.900Z,98863.66
2022-12-03T19:09:11.230Z,98857.69
2022-12-03T19:11:39.892Z,98850.09
2022-12-03T19:14:09.044Z,98855.59
2022-12-03T19:16:38.644Z,98858.16
2022-12-03T19:19:08.139Z,98863.50
2022-12-03T19:21:37.219Z,98856.72
2022-12-03T19:24:25.011Z,98848.81
2022-12-03T19:26:55.297Z,98859.94
2022-12-03T19:29:24.073Z,98858.47
2022-12-03T19:31:53.072Z,98853.00
2022-12-03T19:34:21.911Z,98836.56
2022-12-03T19:36:50.589Z,98842.53
2022-12-03T19:39:20.555Z,98843.16
2022-12-03T19:41:49.214Z,98839.94
2022-12-03T19:44:18.978Z,98842.03
2022-12-03T19:46:49.768Z,98836.22
2022-12-03T19:49:20.881Z,98844.97
2022-12-03T19:51:49.780Z,98849.78
2022-12-03T19:54:19.897Z,98839.78
2022-12-03T19:56:48.513Z,98834.28
2022-12-03T19:59:17.145Z,98834.44
2022-12-03T20:01:45.923Z,98843.00
2022-12-03T20:04:14.748Z,98842.84
2022-12-03T20:06:45.268Z,98852.06
2022-12-03T20:09:17.564Z,98837.84
2022-12-03T20:11:47.772Z,98835.75
2022-12-03T20:14:17.376Z,98844.97
2022-12-03T20:16:46.384Z,98831.06
2022-12-03T20:19:17.224Z,98830.09
2022-12-03T20:21:46.277Z,98831.69
2022-12-03T20:24:16.388Z,98834.16
2022-12-03T20:26:45.091Z,98841.38
2022-12-03T20:29:15.113Z,98842.22
2022-12-03T20:31:43.751Z,98836.56
2022-12-03T20:34:12.430Z,98830.09
2022-12-03T20:36:41.207Z,98824.13
2022-12-03T20:39:09.818Z,98821.53
2022-12-03T20:41:38.950Z,98823.66
2022-12-03T20:44:07.880Z,98828.34
2022-12-03T20:46:37.883Z,98819.44
2022-12-03T20:49:06.551Z,98816.69
2022-12-03T20:51:35.447Z,98820.75
2022-12-03T20:54:04.149Z,98823.66
2022-12-03T20:56:34.019Z,98810.91
2022-12-03T20:59:04.737Z,98808.47
2022-12-03T21:01:34.062Z,98800.59
2022-12-03T21:04:04.731Z,98803.63
2022-12-03T21:06:41.973Z,98804.13
2022-12-03T21:09:11.660Z,98814.25
2022-12-03T21:11:42.160Z,98808.13
2022-12-03T21:14:11.908Z,98802.19
2022-12-03T21:19:32.173Z,98806.53
2022-12-03T21:22:00.840Z,98806.06
2022-12-03T21:24:29.843Z,98807.03
2022-12-03T21:26:58.427Z,98812.19
2022-12-03T21:29:27.033Z,98803.63
2022-12-03T21:31:55.658Z,98800.25
2022-12-03T21:34:24.347Z,98801.38
2022-12-03T21:36:54.339Z,98791.38
2022-12-03T21:39:23.024Z,98788.19
2022-12-03T21:42:34.328Z,98791.72
2022-12-03T21:44:40.283Z,98797.19
2022-12-03T21:47:14.370Z,98803.47
2022-12-03T21:49:43.361Z,98799.75
2022-12-03T21:52:13.307Z,98791.38
2022-12-03T21:54:41.948Z,98793.13
2022-12-03T21:57:10.543Z,98791.69
2022-12-03T21:59:39.203Z,98788.75
2022-12-03T22:02:07.913Z,98790.72
2022-12-03T22:04:36.796Z,98797.16
2022-12-03T22:07:06.347Z,98789.09
2022-12-03T22:09:36.439Z,98793.16
2022-12-03T22:12:05.558Z,98793.31
2022-12-03T22:14:34.243Z,98787.19
2022-12-03T22:17:02.991Z,98787.81
2022-12-03T22:19:31.613Z,98772.69
2022-12-03T22:22:00.263Z,98779.44
2022-12-03T22:24:28.979Z,98770.75
2022-12-03T22:26:58.909Z,98773.31
2022-12-03T22:29:27.571Z,98775.72
2022-12-03T22:31:56.142Z,98770.06
2022-12-03T22:34:24.807Z,98784.78
2022-12-03T22:36:53.443Z,98778.59
2022-12-03T22:39:22.092Z,98782.66
2022-12-03T22:41:50.688Z,98789.28
2022-12-03T22:44:20.635Z,98774.72
2022-12-03T22:46:49.275Z,98773.31
2022-12-03T22:49:17.949Z,98773.63
2022-12-03T22:51:47.079Z,98770.06
2022-12-03T22:54:19.386Z,98768.00
2022-12-03T22:56:52.308Z,98767.31
2022-12-03T22:59:22.291Z,98760.41
2022-12-03T23:01:50.910Z,98764.13
2022-12-03T23:04:19.556Z,98744.91
2022-12-03T23:06:48.241Z,98744.25
2022-12-03T23:09:16.832Z,98744.06
2022-12-03T23:11:46.166Z,98747.59
2022-12-03T23:14:15.072Z,98753.56
2022-12-03T23:16:45.210Z,98743.88
2022-12-03T23:19:14.683Z,98741.00
2022-12-03T23:21:43.328Z,98742.81
2022-12-03T23:24:12.032Z,98741.81
2022-12-03T23:26:40.692Z,98739.88
2022-12-03T23:29:09.339Z,98736.00
2022-12-03T23:31:38.041Z,98724.25
2022-12-03T23:34:08.148Z,98725.50
2022-12-03T23:36:36.790Z,98719.53
2022-12-03T23:39:05.551Z,98722.78
2022-12-03T23:41:34.249Z,98728.91
2022-12-03T23:44:02.983Z,98732.31
2022-12-03T23:46:31.697Z,98730.69
2022-12-03T23:49:00.436Z,98734.53
2022-12-03T23:51:30.582Z,98734.44
2022-12-03T23:53:59.185Z,98729.56
2022-12-03T23:56:29.853Z,98725.84
2022-12-03T23:58:59.331Z,98724.25
